Time;durP1;ratioP1;P1;durP2;ratioP2;P2;SDS_P1;SDS_P2;PMS_P1;PMS_P2;Temp;Humidity;BMP_temperature;BMP_pressure;BME280_temperature;BME280_humidity;BME280_pressure;Samples;Min_cycle;Max_cycle;Signal;HPM_P1;HPM_P2
2022/03/15 00:00:56;;;;;;;9.10;3.63;;;1.10;99.90;;;;;;5073091;28;20459;-69
2022/03/15 00:03:22;;;;;;;6.50;3.08;;;1.10;99.90;;;;;;5073184;28;20020;-69
2022/03/15 00:05:49;;;;;;;7.82;3.85;;;1.10;99.90;;;;;;5073131;28;20020;-69
2022/03/15 00:08:15;;;;;;;10.52;4.57;;;1.10;99.90;;;;;;5073061;28;20020;-69
2022/03/15 00:10:41;;;;;;;8.85;4.80;;;0.90;99.90;;;;;;5073038;28;20020;-69
2022/03/15 00:13:07;;;;;;;8.40;4.18;;;0.90;99.90;;;;;;5073055;28;20021;-69
2022/03/15 00:15:34;;;;;;;8.60;4.72;;;0.80;99.90;;;;;;5071742;28;20040;-69
2022/03/15 00:17:59;;;;;;;10.00;4.85;;;0.80;99.90;;;;;;5072994;28;20376;-69
2022/03/15 00:20:25;;;;;;;9.30;4.65;;;0.80;99.90;;;;;;5073601;28;20021;-69
2022/03/15 00:22:55;;;;;;;7.85;4.40;;;0.90;99.90;;;;;;5071712;28;20059;-69
2022/03/15 00:25:21;;;;;;;10.23;4.80;;;0.80;99.90;;;;;;5072943;28;20496;-69
2022/03/15 00:27:50;;;;;;;10.00;4.22;;;0.80;99.90;;;;;;5072858;28;20029;-69
2022/03/15 00:30:16;;;;;;;8.20;4.70;;;0.80;99.90;;;;;;5074521;28;20048;-69
2022/03/15 00:32:43;;;;;;;10.88;5.00;;;0.80;99.90;;;;;;5076708;28;20020;-69
2022/03/15 00:35:16;;;;;;;8.18;4.53;;;0.70;99.90;;;;;;5076931;28;20035;-70
2022/03/15 00:37:42;;;;;;;9.18;4.35;;;0.70;99.90;;;;;;5077226;28;20032;-70
2022/03/15 00:40:09;;;;;;;9.43;5.10;;;0.70;99.90;;;;;;5076497;28;20465;-69
2022/03/15 00:42:34;;;;;;;7.72;4.57;;;0.70;99.90;;;;;;5076496;28;20400;-69
2022/03/15 00:45:01;;;;;;;8.35;4.32;;;0.60;99.90;;;;;;5076450;28;20025;-69
2022/03/15 00:47:28;;;;;;;8.40;4.47;;;0.60;99.90;;;;;;5076331;28;20043;-69
2022/03/15 00:49:54;;;;;;;11.82;5.00;;;0.70;99.90;;;;;;5076558;28;20029;-69
2022/03/15 00:52:20;;;;;;;7.05;4.28;;;0.70;99.90;;;;;;5076581;28;20018;-69
2022/03/15 00:54:45;;;;;;;8.30;4.60;;;0.80;99.90;;;;;;5075079;28;20031;-69
2022/03/15 00:57:11;;;;;;;9.05;4.57;;;0.70;99.90;;;;;;5076173;28;20491;-70
2022/03/15 00:59:37;;;;;;;8.32;4.20;;;0.70;99.90;;;;;;5076160;28;20063;-69
2022/03/15 01:02:03;;;;;;;6.53;3.50;;;0.70;99.90;;;;;;5076258;28;20108;-70
2022/03/15 01:04:29;;;;;;;8.07;4.13;;;0.70;99.90;;;;;;5076442;28;20032;-69
2022/03/15 01:06:55;;;;;;;8.90;4.40;;;0.70;99.90;;;;;;5076025;28;20024;-69
2022/03/15 01:09:20;;;;;;;7.45;4.20;;;0.70;99.90;;;;;;5075971;28;20032;-70
2022/03/15 01:11:46;;;;;;;8.38;4.60;;;0.60;99.90;;;;;;5074741;28;20366;-70
2022/03/15 01:14:12;;;;;;;8.65;4.18;;;0.60;99.90;;;;;;5076019;28;20058;-70
2022/03/15 01:16:38;;;;;;;7.50;4.15;;;0.60;99.90;;;;;;5075891;28;20362;-70
2022/03/15 01:19:07;;;;;;;7.05;4.03;;;0.50;99.90;;;;;;5076072;28;20024;-70
2022/03/15 01:21:39;;;;;;;9.00;4.13;;;0.50;99.90;;;;;;5075771;28;20532;-70
2022/03/15 01:24:08;;;;;;;7.65;4.95;;;0.50;99.90;;;;;;5076050;28;20099;-70
2022/03/15 01:26:40;;;;;;;8.68;4.97;;;0.40;99.90;;;;;;5076163;28;20389;-70
2022/03/15 01:29:06;;;;;;;8.77;5.05;;;0.40;99.90;;;;;;5075940;28;20104;-70
2022/03/15 01:31:32;;;;;;;8.85;5.25;;;0.30;99.90;;;;;;5075566;28;20031;-70
2022/03/15 01:33:57;;;;;;;12.00;5.13;;;0.40;99.90;;;;;;5075662;28;20407;-70
2022/03/15 01:36:23;;;;;;;8.65;4.72;;;0.30;99.90;;;;;;5075806;28;20024;-70
2022/03/15 01:38:52;;;;;;;8.82;4.43;;;0.40;99.90;;;;;;5075514;28;20499;-70
2022/03/15 01:41:18;;;;;;;8.30;4.57;;;0.40;99.90;;;;;;5075633;28;20029;-70
2022/03/15 01:43:46;;;;;;;10.02;5.10;;;0.40;99.90;;;;;;5075697;28;20031;-70
2022/03/15 01:46:12;;;;;;;9.82;4.75;;;0.40;99.90;;;;;;5075347;28;20073;-70
2022/03/15 01:48:39;;;;;;;7.43;3.92;;;0.40;99.90;;;;;;5074078;28;20054;-70
2022/03/15 01:51:05;;;;;;;10.80;4.35;;;0.40;99.90;;;;;;5075231;28;20016;-70
2022/03/15 01:53:32;;;;;;;8.52;4.20;;;0.50;99.90;;;;;;5075263;28;20131;-70
2022/03/15 01:55:59;;;;;;;8.60;4.60;;;0.50;99.90;;;;;;5075149;28;20091;-70
2022/03/15 01:58:25;;;;;;;7.15;4.25;;;0.50;99.90;;;;;;5075023;28;20039;-69
2022/03/15 02:00:51;;;;;;;7.47;4.10;;;0.50;99.90;;;;;;5075028;28;20024;-69
2022/03/15 02:03:17;;;;;;;9.60;4.97;;;0.50;99.90;;;;;;5075012;28;20020;-69
2022/03/15 02:05:43;;;;;;;7.80;4.03;;;0.50;99.90;;;;;;5074976;28;20031;-69
2022/03/15 02:08:17;;;;;;;7.65;3.92;;;0.50;99.90;;;;;;5074839;28;20032;-69
2022/03/15 02:10:43;;;;;;;7.50;3.95;;;0.50;99.90;;;;;;5074851;28;20035;-69
2022/03/15 02:13:11;;;;;;;8.68;4.13;;;0.50;99.90;;;;;;5074834;28;20021;-69
2022/03/15 02:15:37;;;;;;;8.15;4.53;;;0.50;99.90;;;;;;5075007;28;20063;-69
2022/03/15 02:18:04;;;;;;;7.30;3.97;;;0.50;99.90;;;;;;5074734;28;20033;-69
2022/03/15 02:20:30;;;;;;;6.50;4.18;;;0.50;99.90;;;;;;5073352;28;20025;-69
2022/03/15 02:22:57;;;;;;;8.23;4.32;;;0.40;99.90;;;;;;5074639;28;20028;-69
2022/03/15 02:25:24;;;;;;;8.88;3.97;;;0.40;99.90;;;;;;5074622;28;20070;-69
2022/03/15 02:27:50;;;;;;;10.32;4.63;;;0.40;99.90;;;;;;5075032;28;20016;-69
2022/03/15 02:30:15;;;;;;;10.23;5.15;;;0.40;99.90;;;;;;5074437;28;20020;-70
2022/03/15 02:32:42;;;;;;;7.97;4.47;;;0.30;99.90;;;;;;5074504;28;20361;-69
2022/03/15 02:35:09;;;;;;;11.07;5.40;;;0.30;99.90;;;;;;5073090;28;20024;-69
2022/03/15 02:37:34;;;;;;;7.05;4.15;;;0.30;99.90;;;;;;5074324;28;20028;-69
2022/03/15 02:40:00;;;;;;;10.13;4.65;;;0.30;99.90;;;;;;5072952;28;20115;-69
2022/03/15 02:42:26;;;;;;;7.82;4.22;;;0.30;99.90;;;;;;5074788;28;20024;-69
2022/03/15 02:44:52;;;;;;;8.55;4.55;;;0.30;99.90;;;;;;5074133;28;20028;-69
2022/03/15 02:47:17;;;;;;;7.57;4.20;;;0.20;99.90;;;;;;5074053;28;20028;-69
2022/03/15 02:49:43;;;;;;;8.15;4.70;;;0.20;99.90;;;;;;5074283;28;20060;-69
2022/03/15 02:52:10;;;;;;;8.45;4.82;;;0.20;99.90;;;;;;5073650;28;20028;-69
2022/03/15 02:54:41;;;;;;;8.15;4.68;;;0.20;99.90;;;;;;5074008;28;20066;-69
2022/03/15 02:57:10;;;;;;;9.18;4.30;;;0.10;99.90;;;;;;5073921;28;20039;-69
2022/03/15 02:59:38;;;;;;;10.98;4.30;;;0.10;99.90;;;;;;5074836;28;20105;-69
2022/03/15 03:02:04;;;;;;;8.57;4.50;;;0.00;99.90;;;;;;5074168;28;20016;-69
2022/03/15 03:04:30;;;;;;;9.82;4.47;;;0.00;99.90;;;;;;5073866;28;20029;-69
2022/03/15 03:06:56;;;;;;;15.98;6.95;;;0.10;99.90;;;;;;5074313;28;20051;-69
2022/03/15 03:09:21;;;;;;;21.55;9.60;;;0.10;99.90;;;;;;5072453;28;20385;-69
2022/03/15 03:11:47;;;;;;;23.05;9.40;;;0.10;99.90;;;;;;5074032;28;20377;-69
2022/03/15 03:14:13;;;;;;;12.57;6.35;;;0.10;99.90;;;;;;5074275;28;20357;-69
2022/03/15 03:16:40;;;;;;;9.85;5.20;;;0.10;99.90;;;;;;5073952;28;20031;-69
2022/03/15 03:19:08;;;;;;;9.57;4.95;;;0.10;99.90;;;;;;5073876;28;20052;-69
2022/03/15 03:21:36;;;;;;;8.73;4.72;;;0.10;99.90;;;;;;5073983;28;20496;-69
2022/03/15 03:24:06;;;;;;;12.95;5.05;;;0.10;99.90;;;;;;5073619;28;20540;-69
2022/03/15 03:26:37;;;;;;;9.18;4.25;;;0.00;99.90;;;;;;5073861;28;20039;-69
2022/03/15 03:29:07;;;;;;;7.05;4.00;;;0.00;99.90;;;;;;5074311;28;20360;-69
2022/03/15 03:31:33;;;;;;;8.93;4.07;;;0.10;99.90;;;;;;5073788;28;20013;-69
2022/03/15 03:33:59;;;;;;;9.63;4.55;;;0.10;99.90;;;;;;5073478;28;20044;-69
2022/03/15 03:36:24;;;;;;;10.45;4.40;;;0.10;99.90;;;;;;5073467;28;20086;-69
2022/03/15 03:38:50;;;;;;;8.65;4.60;;;0.10;99.90;;;;;;5073421;28;20496;-69
2022/03/15 03:41:16;;;;;;;10.32;4.85;;;0.10;99.90;;;;;;5073327;28;20027;-69
2022/03/15 03:43:42;;;;;;;10.98;4.57;;;0.10;99.90;;;;;;5073638;28;20025;-69
2022/03/15 03:46:08;;;;;;;11.68;5.95;;;0.10;99.90;;;;;;5073529;28;20055;-69
2022/03/15 03:48:34;;;;;;;10.32;5.10;;;0.10;99.90;;;;;;5073613;28;20024;-69
2022/03/15 03:51:01;;;;;;;9.93;5.60;;;0.10;99.90;;;;;;5073270;28;20016;-68
2022/03/15 03:53:26;;;;;;;9.27;5.40;;;0.00;99.90;;;;;;5073557;28;20103;-69
2022/03/15 03:55:52;;;;;;;8.48;4.90;;;0.00;99.90;;;;;;5071986;28;20154;-68
2022/03/15 03:58:19;;;;;;;10.10;4.47;;;-0.10;99.90;;;;;;5072092;28;20075;-69
2022/03/15 04:00:44;;;;;;;7.75;4.20;;;0.00;99.90;;;;;;5073162;28;20036;-69
2022/03/15 04:03:16;;;;;;;7.25;4.35;;;0.00;99.90;;;;;;5073199;28;20021;-69
2022/03/15 04:05:45;;;;;;;7.13;3.95;;;0.00;99.90;;;;;;5074487;28;20029;-69
2022/03/15 04:08:12;;;;;;;7.97;3.92;;;0.00;99.90;;;;;;5077185;28;20017;-69
2022/03/15 04:10:38;;;;;;;11.45;5.10;;;0.00;99.90;;;;;;5077912;28;20104;-68
2022/03/15 04:13:04;;;;;;;9.80;4.93;;;-0.10;99.90;;;;;;5077151;28;20020;-68
2022/03/15 04:15:32;;;;;;;11.40;5.68;;;-0.10;99.90;;;;;;5077373;28;20017;-68
2022/03/15 04:17:57;;;;;;;14.48;7.38;;;-0.20;99.90;;;;;;5077389;28;20017;-68
2022/03/15 04:20:23;;;;;;;12.02;6.85;;;-0.30;99.90;;;;;;5077012;28;20029;-69
2022/03/15 04:22:49;;;;;;;13.77;7.43;;;-0.30;99.90;;;;;;5076947;28;20028;-69
2022/03/15 04:25:14;;;;;;;10.50;6.57;;;-0.30;99.90;;;;;;5077442;28;20025;-69
2022/03/15 04:27:40;;;;;;;12.15;6.53;;;-0.30;99.90;;;;;;5076797;28;20028;-69
2022/03/15 04:30:06;;;;;;;12.35;5.95;;;-0.20;99.90;;;;;;5076756;28;20481;-69
2022/03/15 04:32:32;;;;;;;13.35;7.00;;;-0.20;99.90;;;;;;5076759;28;20029;-68
2022/03/15 04:34:58;;;;;;;10.05;5.75;;;-0.20;99.90;;;;;;5077194;28;20031;-68
2022/03/15 04:37:24;;;;;;;10.15;5.43;;;-0.20;99.90;;;;;;5076614;28;20020;-69
2022/03/15 04:39:50;;;;;;;8.63;4.78;;;-0.10;99.90;;;;;;5076734;28;20052;-68
2022/03/15 04:42:16;;;;;;;10.95;5.00;;;-0.10;99.90;;;;;;5077160;28;20147;-69
2022/03/15 04:44:42;;;;;;;10.70;4.95;;;-0.10;99.90;;;;;;5076532;28;20107;-69
2022/03/15 04:47:08;;;;;;;9.18;4.80;;;-0.20;99.90;;;;;;5076379;28;20078;-69
2022/03/15 04:49:34;;;;;;;7.97;4.22;;;-0.20;99.90;;;;;;5076643;28;20013;-69
2022/03/15 04:52:04;;;;;;;8.15;4.03;;;-0.20;99.90;;;;;;5076706;28;20052;-69
2022/03/15 04:54:30;;;;;;;9.02;4.15;;;-0.10;99.90;;;;;;5076669;28;20346;-69
2022/03/15 04:56:56;;;;;;;6.85;3.90;;;-0.20;99.90;;;;;;5075806;28;20067;-69
2022/03/15 04:59:22;;;;;;;7.22;3.80;;;-0.20;99.90;;;;;;5075311;28;20029;-69
2022/03/15 05:01:48;;;;;;;7.57;3.60;;;-0.20;99.90;;;;;;5073708;28;20119;-68
2022/03/15 05:04:14;;;;;;;7.53;3.92;;;-0.20;99.90;;;;;;5075019;28;20024;-68
2022/03/15 05:06:40;;;;;;;8.13;3.60;;;-0.10;99.90;;;;;;5074907;28;20028;-68
2022/03/15 05:09:06;;;;;;;5.78;3.22;;;-0.20;99.90;;;;;;5074873;28;20021;-68
2022/03/15 05:11:32;;;;;;;6.78;3.83;;;-0.30;99.90;;;;;;5075229;28;20021;-68
2022/03/15 05:13:58;;;;;;;6.88;3.67;;;-0.40;99.90;;;;;;5074869;28;20024;-68
2022/03/15 05:16:24;;;;;;;8.00;3.83;;;-0.40;99.90;;;;;;5074446;28;20062;-68
2022/03/15 05:18:53;;;;;;;7.53;3.75;;;-0.40;99.90;;;;;;5074699;28;20024;-69
2022/03/15 05:21:24;;;;;;;15.32;8.30;;;-0.50;99.90;;;;;;5074698;28;20055;-69
2022/03/15 05:23:52;;;;;;;15.25;9.63;;;-0.50;99.90;;;;;;5073298;28;20032;-69
2022/03/15 05:26:19;;;;;;;13.38;8.63;;;-0.50;99.90;;;;;;5074494;28;20373;-68
2022/03/15 05:28:45;;;;;;;14.27;9.25;;;-0.50;99.90;;;;;;5074564;28;20028;-68
2022/03/15 05:31:11;;;;;;;28.60;11.77;;;-0.50;99.90;;;;;;5074579;28;20070;-69
2022/03/15 05:33:37;;;;;;;33.72;14.98;;;-0.40;99.90;;;;;;5074815;28;20465;-68
2022/03/15 05:36:04;;;;;;;14.07;7.32;;;-0.40;99.90;;;;;;5073165;28;20027;-69
2022/03/15 05:38:30;;;;;;;11.25;5.22;;;-0.30;99.90;;;;;;5074473;28;20040;-68
2022/03/15 05:40:56;;;;;;;14.55;8.07;;;-0.30;99.90;;;;;;5074431;28;20078;-68
2022/03/15 05:43:22;;;;;;;10.60;6.43;;;-0.30;99.90;;;;;;5074432;28;20024;-69
2022/03/15 05:45:49;;;;;;;14.73;5.90;;;-0.30;99.90;;;;;;5074608;28;20492;-69
2022/03/15 05:48:15;;;;;;;10.75;5.28;;;-0.30;99.90;;;;;;5074594;28;20017;-68
2022/03/15 05:50:40;;;;;;;9.45;4.68;;;-0.40;99.90;;;;;;5073072;28;20047;-69
2022/03/15 05:53:07;;;;;;;9.18;4.88;;;-0.40;99.90;;;;;;5074214;28;20024;-69
2022/03/15 05:55:34;;;;;;;10.15;5.13;;;-0.40;99.90;;;;;;5074479;28;20025;-69
2022/03/15 05:58:00;;;;;;;9.57;4.25;;;-0.30;99.90;;;;;;5034113;28;1129351;-69
2022/03/15 06:00:26;;;;;;;9.52;4.82;;;-0.20;99.90;;;;;;5075068;28;20439;-69
2022/03/15 06:02:52;;;;;;;8.38;4.72;;;-0.20;99.90;;;;;;5075040;28;20530;-69
2022/03/15 06:05:18;;;;;;;9.48;4.93;;;-0.10;99.90;;;;;;5074980;28;20392;-69
2022/03/15 06:07:52;;;;;;;8.23;4.20;;;-0.10;99.90;;;;;;5074864;28;20032;-69
2022/03/15 06:10:21;;;;;;;10.15;5.72;;;0.00;99.90;;;;;;5075127;28;20107;-69
2022/03/15 06:12:48;;;;;;;14.63;5.20;;;0.10;99.90;;;;;;5074874;28;20016;-69
2022/03/15 06:15:14;;;;;;;10.40;5.53;;;0.20;99.90;;;;;;5073888;28;20362;-69
2022/03/15 06:17:49;;;;;;;7.75;4.38;;;0.20;99.90;;;;;;5074707;28;20495;-69
2022/03/15 06:20:16;;;;;;;12.30;5.00;;;0.20;99.90;;;;;;5073481;28;20548;-69
2022/03/15 06:22:43;;;;;;;13.75;4.75;;;0.20;99.90;;;;;;5074729;28;20031;-69
2022/03/15 06:25:09;;;;;;;8.32;4.25;;;0.10;99.90;;;;;;5074698;28;20504;-69
2022/03/15 06:27:36;;;;;;;7.32;4.00;;;0.10;99.90;;;;;;5073729;28;20099;-69
2022/03/15 06:30:04;;;;;;;8.40;3.67;;;0.10;99.90;;;;;;5074460;28;20020;-69
2022/03/15 06:32:33;;;;;;;8.65;4.25;;;0.20;99.90;;;;;;5074708;28;20378;-69
2022/03/15 06:34:59;;;;;;;6.28;3.75;;;0.20;99.90;;;;;;5074405;28;20407;-69
2022/03/15 06:37:28;;;;;;;7.57;3.95;;;0.30;99.90;;;;;;5074632;28;20031;-69
2022/03/15 06:39:55;;;;;;;9.77;4.80;;;0.30;99.90;;;;;;5072998;28;20020;-69
2022/03/15 06:42:21;;;;;;;11.18;5.15;;;0.40;99.90;;;;;;5074262;28;20384;-69
2022/03/15 06:44:48;;;;;;;14.32;5.88;;;0.40;99.90;;;;;;5074462;28;20530;-69
2022/03/15 06:47:13;;;;;;;15.13;5.35;;;0.50;99.90;;;;;;5074157;28;20025;-69
2022/03/15 06:49:39;;;;;;;12.60;5.57;;;0.50;99.90;;;;;;5074383;28;20020;-69
2022/03/15 06:52:05;;;;;;;16.00;6.38;;;0.50;99.90;;;;;;5074091;28;20025;-69
2022/03/15 06:54:31;;;;;;;11.35;5.65;;;0.60;99.90;;;;;;5074633;28;20453;-69
2022/03/15 06:56:57;;;;;;;17.58;8.25;;;0.60;99.90;;;;;;5073935;28;20047;-69
2022/03/15 06:59:23;;;;;;;16.75;7.07;;;0.60;99.90;;;;;;5074380;28;20473;-69
2022/03/15 07:01:50;;;;;;;17.90;6.95;;;0.70;99.90;;;;;;5072618;28;20028;-69
2022/03/15 07:04:17;;;;;;;8.77;5.05;;;0.80;99.90;;;;;;5073911;28;20095;-69
2022/03/15 07:06:43;;;;;;;11.30;6.32;;;0.80;99.90;;;;;;5074083;28;20104;-69
2022/03/15 07:09:09;;;;;;;12.63;5.47;;;0.90;99.90;;;;;;5073780;28;20476;-69
2022/03/15 07:11:35;;;;;;;10.15;5.50;;;0.90;99.90;;;;;;5074100;28;20059;-69
2022/03/15 07:14:03;;;;;;;9.45;4.88;;;1.00;99.90;;;;;;5073699;28;20017;-69
2022/03/15 07:16:28;;;;;;;10.32;5.40;;;1.10;99.90;;;;;;5073656;28;20039;-69
2022/03/15 07:18:55;;;;;;;14.60;5.75;;;1.20;99.90;;;;;;5074374;28;20461;-69
2022/03/15 07:21:21;;;;;;;9.48;4.68;;;1.30;99.90;;;;;;5073640;28;20532;-69
2022/03/15 07:23:46;;;;;;;12.23;6.28;;;1.40;99.90;;;;;;5073863;28;20116;-69
2022/03/15 07:26:12;;;;;;;24.30;11.65;;;1.50;99.90;;;;;;5073826;28;20052;-69
2022/03/15 07:28:38;;;;;;;20.80;9.40;;;1.50;99.90;;;;;;5073437;28;20111;-69
2022/03/15 07:31:04;;;;;;;16.35;7.80;;;1.60;99.90;;;;;;5073442;28;20028;-69
2022/03/15 07:33:30;;;;;;;13.23;6.75;;;1.70;99.90;;;;;;5073812;28;20013;-69
2022/03/15 07:35:56;;;;;;;12.52;6.05;;;1.80;99.90;;;;;;5072258;28;20021;-69
2022/03/15 07:38:21;;;;;;;13.88;6.00;;;1.80;99.90;;;;;;5073413;28;20052;-69
2022/03/15 07:40:48;;;;;;;11.15;5.50;;;1.80;99.90;;;;;;5073369;28;20074;-69
2022/03/15 07:43:15;;;;;;;13.30;6.03;;;1.90;99.90;;;;;;5073478;28;20533;-69
2022/03/15 07:45:40;;;;;;;12.13;4.85;;;1.90;99.90;;;;;;5073356;28;20424;-69
2022/03/15 07:48:06;;;;;;;17.83;7.60;;;2.00;99.90;;;;;;5073280;28;20028;-69
2022/03/15 07:50:33;;;;;;;15.93;7.47;;;2.10;99.90;;;;;;5073253;28;20020;-69
2022/03/15 07:52:58;;;;;;;18.30;8.82;;;2.20;99.90;;;;;;5073233;28;20051;-68
2022/03/15 07:55:24;;;;;;;17.90;7.60;;;2.30;99.90;;;;;;5074038;28;20025;-68
2022/03/15 07:57:50;;;;;;;13.52;6.88;;;2.50;99.90;;;;;;5073072;28;20028;-68
2022/03/15 08:00:17;;;;;;;12.68;6.90;;;2.60;99.90;;;;;;5073151;28;20028;-68
2022/03/15 08:02:42;;;;;;;12.38;6.28;;;2.80;99.90;;;;;;5073219;28;20024;-68
2022/03/15 08:05:09;;;;;;;12.20;6.32;;;2.90;99.90;;;;;;5073455;28;20031;-68
2022/03/15 08:07:36;;;;;;;12.05;6.53;;;3.00;99.90;;;;;;5073361;28;20523;-68
2022/03/15 08:10:04;;;;;;;13.05;6.93;;;3.00;99.90;;;;;;5073226;28;20021;-68
2022/03/15 08:12:30;;;;;;;12.65;5.57;;;3.10;99.90;;;;;;5073649;28;20040;-68
2022/03/15 08:14:55;;;;;;;13.77;5.28;;;3.20;99.90;;;;;;5073298;28;20025;-68
2022/03/15 08:17:21;;;;;;;11.48;6.28;;;3.30;99.90;;;;;;5073250;28;20031;-68
2022/03/15 08:19:47;;;;;;;14.77;6.03;;;3.50;99.90;;;;;;5073169;28;20028;-68
2022/03/15 08:22:12;;;;;;;20.85;8.18;;;3.60;99.90;;;;;;5072941;28;20027;-69
2022/03/15 08:24:38;;;;;;;18.17;9.75;;;3.60;99.90;;;;;;5072961;28;20021;-69
2022/03/15 08:27:04;;;;;;;21.27;12.63;;;3.70;99.90;;;;;;5072764;28;20078;-69
2022/03/15 08:29:30;;;;;;;30.48;20.77;;;3.80;99.90;;;;;;5072593;28;20025;-68
2022/03/15 08:31:57;;;;;;;37.78;20.10;;;3.80;99.90;;;;;;5072576;28;20023;-69
2022/03/15 08:34:23;;;;;;;17.55;10.52;;;3.70;99.90;;;;;;5072738;28;20070;-69
2022/03/15 08:36:49;;;;;;;14.05;8.18;;;3.70;99.90;;;;;;5072798;28;20505;-69
2022/03/15 08:39:15;;;;;;;12.48;7.03;;;3.80;99.90;;;;;;5073040;28;20025;-69
2022/03/15 08:41:42;;;;;;;10.20;5.80;;;3.80;99.90;;;;;;5072652;28;20388;-69
2022/03/15 08:44:08;;;;;;;12.10;6.75;;;3.90;99.90;;;;;;5072738;28;20100;-69
2022/03/15 08:46:34;;;;;;;12.38;7.05;;;4.00;99.90;;;;;;5071434;28;20028;-69
2022/03/15 08:49:00;;;;;;;15.38;8.25;;;4.00;99.90;;;;;;5072726;28;20032;-69
2022/03/15 08:51:25;;;;;;;13.77;7.80;;;4.10;99.90;;;;;;5074664;28;20021;-69
2022/03/15 08:53:51;;;;;;;15.40;6.57;;;4.10;99.90;;;;;;5076649;28;20032;-68
2022/03/15 08:56:17;;;;;;;12.48;7.03;;;4.10;99.90;;;;;;5076385;28;20064;-68
2022/03/15 08:58:43;;;;;;;17.92;8.32;;;4.20;99.90;;;;;;5076216;28;20036;-68
2022/03/15 09:01:08;;;;;;;16.60;8.52;;;4.40;99.90;;;;;;5074850;28;20035;-68
2022/03/15 09:03:34;;;;;;;11.68;6.90;;;4.50;99.90;;;;;;5076405;28;20017;-69
2022/03/15 09:05:59;;;;;;;12.43;6.47;;;4.70;99.90;;;;;;5076321;28;20035;-69
2022/03/15 09:08:25;;;;;;;12.60;6.57;;;4.80;99.90;;;;;;5076332;28;20028;-68
2022/03/15 09:10:51;;;;;;;11.88;5.95;;;4.90;99.90;;;;;;5075983;28;20112;-69
2022/03/15 09:13:16;;;;;;;12.02;6.00;;;5.00;99.90;;;;;;5076089;28;20032;-69
2022/03/15 09:15:42;;;;;;;10.57;5.60;;;5.10;99.90;;;;;;5075999;28;20162;-69
2022/03/15 09:18:08;;;;;;;12.50;6.65;;;5.30;99.30;;;;;;5076198;28;20029;-69
2022/03/15 09:20:34;;;;;;;19.30;9.50;;;5.40;98.80;;;;;;5075863;28;20051;-69
2022/03/15 09:23:00;;;;;;;15.48;7.50;;;5.40;98.10;;;;;;5075915;28;20477;-68
2022/03/15 09:25:26;;;;;;;11.98;6.95;;;5.50;97.50;;;;;;5075834;28;20035;-68
2022/03/15 09:27:52;;;;;;;12.45;6.90;;;5.60;97.10;;;;;;5075753;28;20496;-68
2022/03/15 09:30:18;;;;;;;12.98;6.43;;;5.60;95.70;;;;;;5075697;28;20120;-68
2022/03/15 09:32:44;;;;;;;11.52;6.40;;;5.60;95.80;;;;;;5075665;28;20091;-69
2022/03/15 09:35:10;;;;;;;11.52;6.38;;;5.60;95.50;;;;;;5075671;28;20104;-69
2022/03/15 09:37:36;;;;;;;11.38;6.28;;;5.60;96.10;;;;;;5075943;28;20506;-69
2022/03/15 09:40:08;;;;;;;14.32;7.05;;;5.60;96.20;;;;;;5075765;28;20031;-69
2022/03/15 09:42:36;;;;;;;13.45;8.02;;;5.60;95.60;;;;;;5075875;28;20024;-69
2022/03/15 09:45:03;;;;;;;12.77;6.95;;;5.70;95.50;;;;;;5074182;28;20536;-69
2022/03/15 09:47:33;;;;;;;11.07;6.32;;;5.70;95.70;;;;;;5074073;28;20055;-69
2022/03/15 09:50:03;;;;;;;14.07;6.87;;;5.80;95.60;;;;;;5075647;28;20024;-69
2022/03/15 09:52:29;;;;;;;13.23;6.28;;;5.80;95.40;;;;;;5075285;28;20020;-69
2022/03/15 09:54:56;;;;;;;11.55;7.05;;;5.90;95.20;;;;;;5075246;28;20358;-68
2022/03/15 09:57:22;;;;;;;11.90;7.32;;;6.00;94.90;;;;;;5075246;28;20214;-69
2022/03/15 09:59:52;;;;;;;48.53;31.40;;;6.00;94.50;;;;;;5075359;28;20369;-68
2022/03/15 10:02:18;;;;;;;27.85;16.70;;;6.10;94.10;;;;;;5074224;28;20031;-69
2022/03/15 10:04:44;;;;;;;13.98;7.93;;;6.10;93.90;;;;;;5075117;28;20044;-68
2022/03/15 10:07:10;;;;;;;15.93;6.90;;;6.20;93.70;;;;;;5075205;28;20055;-68
2022/03/15 10:09:37;;;;;;;12.85;7.05;;;6.20;93.70;;;;;;5075255;28;20107;-68
2022/03/15 10:12:03;;;;;;;16.30;8.18;;;6.30;93.50;;;;;;5074886;28;20021;-69
2022/03/15 10:14:43;;;;;;;11.77;7.20;;;6.30;93.50;;;;;;5074909;28;20364;-68
2022/03/15 10:17:11;;;;;;;12.70;7.15;;;6.40;93.10;;;;;;5075173;28;20039;-69
2022/03/15 10:19:36;;;;;;;11.32;6.32;;;6.40;92.80;;;;;;5074705;28;20086;-69
2022/03/15 10:22:07;;;;;;;12.18;6.13;;;6.30;93.10;;;;;;5073439;28;20028;-69
2022/03/15 10:24:38;;;;;;;10.68;6.05;;;6.30;93.20;;;;;;5074744;28;20111;-69
2022/03/15 10:27:07;;;;;;;13.57;5.90;;;6.30;93.20;;;;;;5074885;28;20056;-69
2022/03/15 10:29:34;;;;;;;13.27;7.45;;;6.30;92.70;;;;;;5074689;28;20370;-69
2022/03/15 10:32:02;;;;;;;19.75;8.95;;;6.30;92.80;;;;;;5074769;28;20017;-68
2022/03/15 10:34:31;;;;;;;17.65;9.00;;;6.30;92.90;;;;;;5074452;28;20085;-68
2022/03/15 10:36:57;;;;;;;17.33;9.60;;;6.30;92.90;;;;;;5074442;28;20029;-68
2022/03/15 10:39:24;;;;;;;19.08;10.45;;;6.30;93.00;;;;;;5074294;28;20020;-69
2022/03/15 10:41:52;;;;;;;19.25;10.40;;;6.20;92.40;;;;;;5074594;28;20462;-68
2022/03/15 10:44:27;;;;;;;16.58;9.93;;;6.30;92.50;;;;;;5074304;28;20027;-69
2022/03/15 10:47:05;;;;;;;17.20;9.38;;;6.20;92.70;;;;;;5074154;28;20032;-69
2022/03/15 10:49:43;;;;;;;20.35;10.45;;;6.10;93.00;;;;;;5074722;28;20025;-68
2022/03/15 10:52:09;;;;;;;18.42;9.80;;;6.10;93.30;;;;;;5074438;28;20476;-69
2022/03/15 10:54:35;;;;;;;19.98;10.48;;;6.00;93.40;;;;;;5074129;28;20054;-69
2022/03/15 10:57:01;;;;;;;14.73;9.60;;;6.00;93.70;;;;;;5074068;28;20031;-69
2022/03/15 10:59:27;;;;;;;18.50;9.65;;;6.00;94.00;;;;;;5073915;28;20037;-69
2022/03/15 11:01:53;;;;;;;19.35;9.60;;;5.90;93.90;;;;;;5073925;28;20079;-69
2022/03/15 11:04:20;;;;;;;17.13;9.75;;;5.90;93.80;;;;;;5074216;28;20031;-69
2022/03/15 11:06:49;;;;;;;16.58;9.32;;;5.90;93.80;;;;;;5073792;28;20039;-69
2022/03/15 11:09:21;;;;;;;20.85;8.73;;;6.00;93.90;;;;;;5073796;28;20021;-69
2022/03/15 11:12:00;;;;;;;16.73;9.70;;;5.90;93.60;;;;;;5074149;28;20052;-69
2022/03/15 11:14:41;;;;;;;20.45;9.32;;;6.00;93.40;;;;;;5073722;28;20101;-69
2022/03/15 11:17:24;;;;;;;17.85;10.00;;;6.10;93.70;;;;;;5074034;28;20060;-69
2022/03/15 11:20:00;;;;;;;27.17;12.40;;;6.10;93.60;;;;;;5074079;28;20107;-69
2022/03/15 11:22:31;;;;;;;25.88;12.82;;;6.10;93.80;;;;;;5073972;28;20032;-69
2022/03/15 11:25:05;;;;;;;21.55;12.13;;;6.20;93.60;;;;;;5073943;28;20024;-69
2022/03/15 11:27:40;;;;;;;18.98;11.05;;;6.30;93.10;;;;;;5073496;28;20033;-69
2022/03/15 11:30:15;;;;;;;23.80;10.77;;;6.40;92.90;;;;;;5073510;28;20107;-69
2022/03/15 11:32:41;;;;;;;23.83;11.35;;;6.50;92.60;;;;;;5073469;28;20381;-69
2022/03/15 11:35:09;;;;;;;23.40;12.73;;;6.60;92.40;;;;;;5072120;28;20054;-69
2022/03/15 11:37:36;;;;;;;19.77;10.63;;;6.70;92.50;;;;;;5073411;28;20080;-69
2022/03/15 11:40:04;;;;;;;19.70;10.93;;;6.80;92.10;;;;;;5071860;28;20040;-69
2022/03/15 11:42:35;;;;;;;16.17;9.20;;;6.80;92.00;;;;;;5073281;28;20044;-69
2022/03/15 11:45:10;;;;;;;17.52;8.60;;;6.90;91.70;;;;;;5073648;28;20035;-69
2022/03/15 11:47:57;;;;;;;15.50;8.02;;;7.00;91.00;;;;;;5073597;28;20025;-70
2022/03/15 11:50:51;;;;;;;17.20;8.68;;;7.00;90.10;;;;;;5073516;28;20032;-69
2022/03/15 11:54:00;;;;;;;20.00;10.45;;;7.10;88.80;;;;;;5073332;28;20059;-69
2022/03/15 11:56:50;;;;;;;20.65;8.30;;;7.20;90.00;;;;;;5061628;28;20036;-70
2022/03/15 11:59:16;;;;;;;18.42;10.02;;;7.20;89.00;;;;;;5073424;28;20107;-69
2022/03/15 12:01:47;;;;;;;39.17;19.30;;;7.30;89.90;;;;;;5071881;28;20124;-69
2022/03/15 12:04:14;;;;;;;28.23;13.60;;;7.20;89.50;;;;;;5073470;28;20491;-70
2022/03/15 12:06:54;;;;;;;26.90;14.50;;;7.20;90.00;;;;;;5073352;28;20025;-70
2022/03/15 12:09:25;;;;;;;23.20;13.07;;;7.30;90.10;;;;;;5072995;28;20016;-70
2022/03/15 12:12:29;;;;;;;21.73;12.85;;;7.20;90.20;;;;;;5073056;28;20105;-69
2022/03/15 12:14:54;;;;;;;23.08;13.30;;;7.30;90.20;;;;;;5069612;28;20477;-69
2022/03/15 12:17:20;;;;;;;21.77;11.65;;;7.30;88.50;;;;;;5071810;28;20025;-69
2022/03/15 12:19:50;;;;;;;19.48;12.57;;;7.30;88.80;;;;;;5072960;28;20025;-69
2022/03/15 12:22:36;;;;;;;21.42;11.68;;;7.30;89.80;;;;;;5073036;28;20039;-69
2022/03/15 12:25:05;;;;;;;16.73;10.70;;;7.20;90.40;;;;;;5073542;28;20031;-69
2022/03/15 12:27:43;;;;;;;25.45;12.73;;;7.20;90.40;;;;;;5077114;28;20029;-70
2022/03/15 12:30:14;;;;;;;22.33;12.10;;;7.20;90.50;;;;;;5077380;28;20027;-70
2022/03/15 12:32:50;;;;;;;21.42;11.18;;;7.10;90.50;;;;;;5077394;28;20027;-69
2022/03/15 12:35:16;;;;;;;23.48;12.80;;;7.10;90.90;;;;;;5076956;28;20024;-70
2022/03/15 12:37:42;;;;;;;36.70;16.17;;;7.00;91.30;;;;;;5076916;28;20070;-70
2022/03/15 12:40:10;;;;;;;38.08;16.58;;;7.00;91.70;;;;;;5076827;28;20028;-70
2022/03/15 12:42:37;;;;;;;27.92;14.85;;;7.00;91.60;;;;;;5076604;28;20058;-69
2022/03/15 12:45:10;;;;;;;21.77;11.60;;;7.00;91.90;;;;;;5076520;28;20073;-70
2022/03/15 12:47:43;;;;;;;26.63;12.25;;;7.00;91.70;;;;;;5077005;28;20516;-70
2022/03/15 12:50:18;;;;;;;22.50;12.70;;;7.10;91.50;;;;;;5076390;28;20026;-70